Time;durP1;ratioP1;P1;durP2;ratioP2;P2;SDS_P1;SDS_P2;PMS_P1;PMS_P2;Temp;Humidity;BMP_temperature;BMP_pressure;BME280_temperature;BME280_humidity;BME280_pressure;Samples;Min_cycle;Max_cycle;Signal;HPM_P1;HPM_P2
2022/02/05 00:01:27;;;;;;;33.70;3.13;;;3.30;99.90;;;;;;5036089;28;20100;-76
2022/02/05 00:03:58;;;;;;;27.85;3.42;;;3.40;99.90;;;;;;5036078;28;20097;-76
2022/02/05 00:06:30;;;;;;;22.77;3.42;;;3.50;99.90;;;;;;5036225;28;20079;-76
2022/02/05 00:09:13;;;;;;;22.77;3.10;;;3.60;99.90;;;;;;5036282;28;20440;-76
2022/02/05 00:41:25;;;;;;;14.75;1.88;;;3.70;99.90;;;;;;5035854;28;20536;-77
2022/02/05 00:43:57;;;;;;;30.58;2.92;;;3.50;99.90;;;;;;5036161;28;20025;-76
2022/02/05 00:46:26;;;;;;;21.60;3.25;;;3.40;99.90;;;;;;5035830;28;20029;-77
2022/02/05 00:48:52;;;;;;;30.27;2.70;;;3.40;99.90;;;;;;5035436;28;20029;-77
2022/02/05 00:51:25;;;;;;;29.02;3.35;;;3.40;99.90;;;;;;5035158;28;20490;-77
2022/02/05 00:54:02;;;;;;;18.05;2.67;;;3.30;99.90;;;;;;5017841;28;20378;-77
2022/02/05 00:56:50;;;;;;;23.30;3.08;;;3.20;99.90;;;;;;5035772;28;20049;-77
2022/02/05 00:59:18;;;;;;;21.83;2.85;;;3.20;99.90;;;;;;5035453;28;20064;-77
2022/02/05 01:01:44;;;;;;;17.60;2.38;;;3.20;99.90;;;;;;5034927;28;20060;-77
2022/02/05 01:04:10;;;;;;;35.47;2.33;;;3.20;99.90;;;;;;5034972;28;20478;-77
2022/02/05 01:06:36;;;;;;;9.38;2.03;;;3.20;99.90;;;;;;5035126;28;20052;-77
2022/02/05 01:09:07;;;;;;;18.95;3.50;;;3.30;99.90;;;;;;5035219;28;20049;-77
2022/02/05 01:11:34;;;;;;;15.27;1.80;;;2.80;99.90;;;;;;5035734;28;20025;-76
2022/02/05 01:14:01;;;;;;;14.10;2.22;;;2.20;99.90;;;;;;5036685;28;20026;-77
2022/02/05 01:16:41;;;;;;;9.70;1.65;;;2.00;99.90;;;;;;5036739;28;20018;-77
2022/02/05 01:19:10;;;;;;;14.52;2.17;;;2.00;99.90;;;;;;5036371;28;20022;-77
2022/02/05 01:21:49;;;;;;;16.30;2.40;;;2.10;99.90;;;;;;5036697;28;20026;-77
2022/02/05 01:24:17;;;;;;;20.70;2.45;;;2.20;99.90;;;;;;5036286;28;20101;-77
2022/02/05 01:26:50;;;;;;;13.35;1.40;;;2.20;99.90;;;;;;5017757;28;20028;-77
2022/02/05 01:32:22;;;;;;;14.77;2.45;;;2.30;99.90;;;;;;4994281;28;20080;-77
2022/02/05 01:59:10;;;;;;;8.05;1.38;;;2.20;99.90;;;;;;5034554;28;20445;-76
2022/02/05 02:09:30;;;;;;;21.25;2.90;;;2.30;99.90;;;;;;5034368;28;20496;-77
2022/02/05 02:10:36;;;;;;;16.48;2.05;;;2.40;99.90;;;;;;5033058;28;20115;-76
2022/02/05 02:13:43;;;;;;;20.40;2.17;;;2.50;99.90;;;;;;5033686;28;20017;-76
2022/02/05 02:19:06;;;;;;;16.88;2.63;;;2.70;99.90;;;;;;5034190;28;20032;-76
2022/02/05 02:21:49;;;;;;;20.80;2.90;;;2.80;99.90;;;;;;5034029;28;20036;-76
2022/02/05 02:24:25;;;;;;;32.97;3.00;;;2.90;99.90;;;;;;5033863;28;20029;-76
2022/02/05 02:27:14;;;;;;;25.02;2.50;;;3.00;99.90;;;;;;5033791;28;20026;-76
2022/02/05 02:32:08;;;;;;;15.48;2.40;;;3.00;99.90;;;;;;5033597;28;20064;-76
2022/02/05 02:34:39;;;;;;;33.75;3.45;;;3.00;99.90;;;;;;5033687;28;20028;-76
2022/02/05 02:37:07;;;;;;;26.90;3.90;;;3.00;99.90;;;;;;5033697;28;20021;-76
2022/02/05 02:39:46;;;;;;;25.42;4.43;;;3.10;99.90;;;;;;5033324;28;20021;-76
2022/02/05 02:42:12;;;;;;;20.35;2.58;;;3.10;99.90;;;;;;5033317;28;20029;-76
2022/02/05 02:44:38;;;;;;;32.95;3.97;;;3.10;99.90;;;;;;5032909;28;20025;-76
2022/02/05 02:47:04;;;;;;;24.90;3.17;;;3.10;99.90;;;;;;5033806;28;20033;-76
2022/02/05 02:49:45;;;;;;;20.92;2.65;;;3.10;99.90;;;;;;5033205;28;20513;-76
2022/02/05 02:57:40;;;;;;;18.73;2.85;;;3.10;99.90;;;;;;5033487;28;20389;-76
2022/02/05 03:00:11;;;;;;;19.92;3.50;;;3.10;99.90;;;;;;5033371;28;20021;-76
2022/02/05 03:02:36;;;;;;;19.35;1.73;;;2.90;99.90;;;;;;5033170;28;20036;-76
2022/02/05 03:05:02;;;;;;;11.30;1.83;;;2.70;99.90;;;;;;5033082;28;20029;-76
2022/02/05 03:07:28;;;;;;;16.02;1.85;;;2.30;99.90;;;;;;5033032;28;20029;-76
2022/02/05 03:09:55;;;;;;;11.05;1.25;;;2.10;99.90;;;;;;5033011;28;20113;-76
2022/02/05 03:12:21;;;;;;;11.18;1.85;;;2.00;99.90;;;;;;5033251;28;20022;-76
2022/02/05 03:14:47;;;;;;;11.93;1.73;;;1.90;99.90;;;;;;5033035;28;20028;-76
2022/02/05 03:17:21;;;;;;;10.82;2.05;;;1.80;99.90;;;;;;5032987;28;20060;-76
2022/02/05 03:19:52;;;;;;;20.20;1.88;;;1.70;99.90;;;;;;5032968;28;20022;-76
2022/02/05 03:22:20;;;;;;;14.15;1.75;;;1.70;99.90;;;;;;5032943;28;20036;-76
2022/02/05 03:24:46;;;;;;;17.10;2.03;;;1.70;99.90;;;;;;5032924;28;20022;-76
2022/02/05 03:27:14;;;;;;;17.60;2.45;;;1.70;99.90;;;;;;5032896;28;20030;-76
2022/02/05 03:29:43;;;;;;;27.88;2.60;;;1.70;99.90;;;;;;5032959;28;20037;-76
2022/02/05 03:32:09;;;;;;;29.23;3.17;;;1.90;99.90;;;;;;5033055;28;20025;-76
2022/02/05 03:34:35;;;;;;;34.55;4.82;;;2.00;99.90;;;;;;5032832;28;20022;-76
2022/02/05 03:37:01;;;;;;;34.08;3.28;;;2.10;99.90;;;;;;5015115;28;20021;-76
2022/02/05 03:39:27;;;;;;;49.65;4.85;;;2.10;99.90;;;;;;5015107;28;20029;-76
2022/02/05 03:41:53;;;;;;;32.85;3.60;;;2.30;99.90;;;;;;5032951;28;20033;-76
2022/02/05 03:44:19;;;;;;;36.63;3.60;;;2.30;99.90;;;;;;5033256;28;20156;-76
2022/02/05 03:46:45;;;;;;;39.78;4.47;;;2.40;99.90;;;;;;5032715;28;20478;-76
2022/02/05 03:49:14;;;;;;;24.15;3.17;;;2.40;99.90;;;;;;5032689;28;20389;-76
2022/02/05 03:51:40;;;;;;;35.53;4.47;;;2.40;99.90;;;;;;5032425;28;20033;-76
2022/02/05 03:54:05;;;;;;;38.85;3.17;;;2.40;99.90;;;;;;5014939;28;20022;-76
2022/02/05 03:56:31;;;;;;;47.92;3.92;;;2.40;99.90;;;;;;5033232;28;20032;-76
2022/02/05 03:58:56;;;;;;;34.13;3.97;;;2.40;99.90;;;;;;5036137;28;20026;-76
2022/02/05 04:01:22;;;;;;;31.33;2.75;;;2.40;99.90;;;;;;5036031;28;20072;-76
2022/02/05 04:03:47;;;;;;;39.90;3.75;;;2.40;99.90;;;;;;5036315;28;20087;-76
2022/02/05 04:06:13;;;;;;;35.20;3.03;;;2.40;99.90;;;;;;5036047;28;20083;-76
2022/02/05 04:08:39;;;;;;;21.67;2.83;;;2.40;99.90;;;;;;5036022;28;20036;-76
2022/02/05 04:11:26;;;;;;;39.75;3.25;;;2.30;99.90;;;;;;5018046;28;20026;-75
2022/02/05 04:16:53;;;;;;;23.98;3.72;;;2.40;99.90;;;;;;4994417;28;20069;-76
2022/02/05 04:19:18;;;;;;;58.95;3.78;;;2.50;99.90;;;;;;5027309;28;20041;-76
2022/02/05 04:21:45;;;;;;;41.15;3.50;;;2.50;99.90;;;;;;5035647;28;20071;-76
2022/02/05 04:24:10;;;;;;;39.85;5.07;;;2.50;99.90;;;;;;5035652;28;20084;-76
2022/02/05 04:26:36;;;;;;;37.25;3.58;;;2.50;99.90;;;;;;5035908;28;20417;-76
2022/02/05 04:29:06;;;;;;;27.63;3.65;;;2.50;99.90;;;;;;5035605;28;20588;-75
2022/02/05 04:31:32;;;;;;;53.22;3.92;;;2.50;99.90;;;;;;5035442;28;20524;-76
2022/02/05 04:33:57;;;;;;;23.40;3.00;;;2.60;99.90;;;;;;5017751;28;20057;-75
2022/02/05 04:36:23;;;;;;;39.47;3.53;;;2.50;99.90;;;;;;5035504;28;20053;-75
2022/02/05 04:38:50;;;;;;;39.78;6.20;;;2.60;99.90;;;;;;5035396;28;20057;-75
2022/02/05 04:41:24;;;;;;;27.02;2.60;;;2.60;99.90;;;;;;5035314;28;20477;-75
2022/02/05 04:52:00;;;;;;;48.88;3.72;;;2.90;99.90;;;;;;5035480;28;20036;-75
2022/02/05 04:54:49;;;;;;;27.13;4.35;;;2.90;99.90;;;;;;5035237;28;20435;-75
2022/02/05 05:05:35;;;;;;;30.42;3.25;;;2.90;99.90;;;;;;5035012;28;20032;-75
2022/02/05 05:13:31;;;;;;;24.13;4.47;;;3.00;99.90;;;;;;5035069;28;20053;-76
2022/02/05 05:21:12;;;;;;;31.15;3.38;;;3.00;99.90;;;;;;5034614;28;20032;-75
2022/02/05 05:23:38;;;;;;;28.48;3.90;;;2.90;99.90;;;;;;5034580;28;20033;-75
2022/02/05 05:26:04;;;;;;;29.55;4.53;;;2.90;99.90;;;;;;5034779;28;20033;-75
2022/02/05 05:28:29;;;;;;;19.92;2.97;;;2.90;99.90;;;;;;5034495;28;20029;-75
2022/02/05 05:30:55;;;;;;;24.15;3.30;;;2.80;99.90;;;;;;5034310;28;20067;-75
2022/02/05 05:33:20;;;;;;;27.17;3.53;;;2.90;99.90;;;;;;5034408;28;20454;-75
2022/02/05 05:35:46;;;;;;;40.08;3.58;;;2.90;99.90;;;;;;5034569;28;20033;-75
2022/02/05 05:38:12;;;;;;;27.38;3.55;;;2.90;99.90;;;;;;5034302;28;20040;-75
2022/02/05 05:40:39;;;;;;;23.13;3.17;;;2.90;99.90;;;;;;5034221;28;20013;-75
2022/02/05 05:43:16;;;;;;;28.42;2.83;;;2.90;99.90;;;;;;5034216;28;20474;-75
2022/02/05 05:48:44;;;;;;;;;;;3.00;99.90;;;;;;5034813;28;20024;-75
2022/02/05 05:51:10;;;;;;;;;;;3.00;99.90;;;;;;5016507;28;20007;-75
2022/02/05 05:53:35;;;;;;;38.80;4.18;;;3.00;99.90;;;;;;5034057;28;19944;-75
2022/02/05 05:56:03;;;;;;;26.27;3.72;;;3.10;99.90;;;;;;5033930;28;20537;-75
2022/02/05 05:58:29;;;;;;;32.35;5.10;;;3.20;99.90;;;;;;5034212;28;20104;-75
2022/02/05 06:00:55;;;;;;;20.60;3.10;;;3.20;99.90;;;;;;5033924;28;20101;-75
2022/02/05 06:03:21;;;;;;;40.08;4.20;;;3.20;99.90;;;;;;5033865;28;20014;-75
2022/02/05 06:05:47;;;;;;;21.42;2.60;;;3.20;99.90;;;;;;5033945;28;20091;-75
2022/02/05 06:08:15;;;;;;;23.52;3.47;;;3.30;99.90;;;;;;5034047;28;20482;-75
2022/02/05 06:10:40;;;;;;;25.27;4.07;;;3.20;99.90;;;;;;5033562;28;20060;-75
2022/02/05 06:13:06;;;;;;;30.42;4.15;;;3.20;99.90;;;;;;5033697;28;20045;-75
2022/02/05 06:15:32;;;;;;;47.47;5.28;;;3.20;99.90;;;;;;5033935;28;20061;-75
2022/02/05 06:17:57;;;;;;;44.42;6.00;;;3.20;99.90;;;;;;5033639;28;20033;-75
2022/02/05 06:20:23;;;;;;;36.88;4.57;;;3.20;99.90;;;;;;5033065;28;20017;-75
2022/02/05 06:22:49;;;;;;;21.25;3.67;;;3.10;99.90;;;;;;5033895;28;20390;-75
2022/02/05 06:25:14;;;;;;;43.17;5.13;;;3.20;99.90;;;;;;5033492;28;20056;-75
2022/02/05 06:27:40;;;;;;;16.13;3.90;;;3.20;99.90;;;;;;5033470;28;20363;-75
2022/02/05 06:30:07;;;;;;;35.67;4.47;;;3.20;99.90;;;;;;5033394;28;20021;-75
2022/02/05 06:32:32;;;;;;;39.20;3.30;;;3.20;99.90;;;;;;5033309;28;20449;-75
2022/02/05 06:34:58;;;;;;;34.22;5.28;;;3.20;99.90;;;;;;5033376;28;20036;-75
2022/02/05 06:37:24;;;;;;;17.75;3.47;;;3.20;99.90;;;;;;5033393;28;20037;-75
2022/02/05 06:39:49;;;;;;;25.73;3.67;;;3.20;99.90;;;;;;5033267;28;20025;-75
2022/02/05 06:42:15;;;;;;;21.73;3.63;;;3.20;99.90;;;;;;5033361;28;20037;-75
2022/02/05 06:44:40;;;;;;;19.90;2.50;;;3.10;99.90;;;;;;5033306;28;20032;-75
2022/02/05 06:47:06;;;;;;;25.70;2.80;;;3.10;99.90;;;;;;5033301;28;20021;-75
2022/02/05 06:49:34;;;;;;;27.55;4.35;;;3.10;99.90;;;;;;5033404;28;20025;-75
2022/02/05 06:51:59;;;;;;;27.73;3.08;;;3.10;99.90;;;;;;5033478;28;20106;-75
2022/02/05 06:54:25;;;;;;;23.77;3.67;;;3.10;99.90;;;;;;5033214;28;20029;-75
2022/02/05 06:56:51;;;;;;;33.50;4.43;;;3.00;99.90;;;;;;5033204;28;20393;-75
2022/02/05 06:59:17;;;;;;;41.60;4.63;;;3.00;99.90;;;;;;5033147;28;20472;-75
2022/02/05 07:01:43;;;;;;;49.30;5.82;;;3.10;99.90;;;;;;5033094;28;20033;-75
2022/02/05 07:04:08;;;;;;;36.92;4.50;;;3.10;99.90;;;;;;5033389;28;20077;-75
2022/02/05 07:06:34;;;;;;;30.58;4.45;;;3.10;99.90;;;;;;5033073;28;20026;-75
2022/02/05 07:09:02;;;;;;;43.38;3.50;;;3.00;99.90;;;;;;5033081;28;20038;-75
2022/02/05 07:11:27;;;;;;;46.03;7.10;;;3.00;99.90;;;;;;5033245;28;20026;-75
2022/02/05 07:13:55;;;;;;;33.03;4.88;;;3.00;99.90;;;;;;5033033;28;20478;-75
2022/02/05 07:16:59;;;;;;;32.45;4.05;;;3.00;99.90;;;;;;5032992;28;20024;-75
2022/02/05 07:21:43;;;;;;;35.65;5.47;;;3.00;99.90;;;;;;5032908;28;20057;-75
2022/02/05 07:24:22;;;;;;;33.22;5.57;;;3.00;99.90;;;;;;5032973;28;20029;-75
2022/02/05 07:29:32;;;;;;;33.97;5.50;;;3.10;99.90;;;;;;5032905;28;20040;-75
2022/02/05 07:31:58;;;;;;;52.08;5.05;;;3.10;99.90;;;;;;5036265;28;20033;-75
2022/02/05 07:34:30;;;;;;;50.67;5.63;;;3.20;99.90;;;;;;5036661;28;20036;-75
2022/02/05 07:37:01;;;;;;;47.72;6.00;;;3.30;99.90;;;;;;5037002;28;20454;-75
2022/02/05 07:39:27;;;;;;;43.47;5.80;;;3.40;99.90;;;;;;5036525;28;20024;-75
2022/02/05 07:41:54;;;;;;;24.52;4.20;;;3.50;99.90;;;;;;5019124;28;20110;-75
2022/02/05 07:44:20;;;;;;;31.02;4.35;;;3.60;99.90;;;;;;5037269;28;20025;-75
2022/02/05 07:46:49;;;;;;;40.20;5.55;;;3.60;99.90;;;;;;5036843;28;20449;-75
2022/02/05 07:49:17;;;;;;;42.50;6.25;;;3.70;99.90;;;;;;5036395;28;20097;-75
2022/02/05 07:51:43;;;;;;;46.15;6.50;;;3.80;99.90;;;;;;5036144;28;20078;-75
2022/02/05 07:54:10;;;;;;;44.10;5.22;;;4.00;99.90;;;;;;5036284;28;20025;-75
2022/02/05 07:56:37;;;;;;;33.55;5.10;;;4.10;99.90;;;;;;5036238;28;20075;-75
2022/02/05 07:59:02;;;;;;;36.03;4.63;;;4.10;99.90;;;;;;5036197;28;20052;-75
2022/02/05 08:01:30;;;;;;;46.15;5.35;;;4.20;99.90;;;;;;5036060;28;20060;-75
2022/02/05 08:03:55;;;;;;;44.78;8.07;;;4.30;99.90;;;;;;5036089;28;20025;-75
2022/02/05 08:06:21;;;;;;;47.92;5.40;;;4.40;99.90;;;;;;5036044;28;20493;-75
2022/02/05 08:08:48;;;;;;;43.67;5.95;;;4.40;99.90;;;;;;5036184;28;20128;-75
2022/02/05 08:11:18;;;;;;;52.33;5.22;;;4.40;99.90;;;;;;5035833;28;20108;-75
2022/02/05 08:13:45;;;;;;;46.28;4.70;;;4.40;99.90;;;;;;5035924;28;20100;-75
2022/02/05 08:18:38;;;;;;;42.70;5.80;;;4.50;99.90;;;;;;5036178;28;20026;-75
2022/02/05 08:21:04;;;;;;;45.17;6.93;;;4.50;99.90;;;;;;5035787;28;20021;-75
2022/02/05 08:23:31;;;;;;;40.00;5.28;;;4.50;99.90;;;;;;5035764;28;20511;-75
2022/02/05 08:25:57;;;;;;;42.67;5.50;;;4.60;99.90;;;;;;5035838;28;20056;-75
2022/02/05 08:28:23;;;;;;;32.50;4.78;;;4.70;99.90;;;;;;5035700;28;20029;-75
2022/02/05 08:30:48;;;;;;;36.38;4.07;;;4.70;99.90;;;;;;5035534;28;20033;-75
2022/02/05 08:33:14;;;;;;;39.60;5.50;;;4.70;99.90;;;;;;5035603;28;20017;-75
2022/02/05 08:35:41;;;;;;;32.42;4.80;;;4.80;99.90;;;;;;5035486;28;20105;-75
2022/02/05 08:38:08;;;;;;;39.70;4.88;;;4.70;99.90;;;;;;5017703;28;20029;-75
2022/02/05 08:40:33;;;;;;;52.95;7.20;;;4.70;99.90;;;;;;5035933;28;20022;-75
2022/02/05 08:42:59;;;;;;;40.25;5.07;;;4.70;99.90;;;;;;5034697;28;20078;-75
2022/02/05 08:45:24;;;;;;;45.65;4.97;;;4.70;99.90;;;;;;5035387;28;20049;-75
2022/02/05 08:47:50;;;;;;;49.72;5.07;;;4.70;99.90;;;;;;5017573;28;20029;-75
2022/02/05 08:50:16;;;;;;;40.08;5.13;;;4.80;99.90;;;;;;5035549;28;20038;-73
2022/02/05 08:52:41;;;;;;;60.22;6.32;;;4.90;99.90;;;;;;5035123;28;20029;-73
2022/02/05 08:55:08;;;;;;;33.67;6.13;;;5.00;99.90;;;;;;5035173;28;20021;-72
2022/02/05 08:57:35;;;;;;;41.08;5.82;;;5.00;99.90;;;;;;5035380;28;20020;-72
2022/02/05 09:00:12;;;;;;;58.47;7.10;;;5.00;99.90;;;;;;5034970;28;20100;-73
2022/02/05 09:02:48;;;;;;;41.22;4.68;;;5.00;99.90;;;;;;5035324;28;20104;-73
2022/02/05 09:05:43;;;;;;;53.72;6.30;;;5.10;99.90;;;;;;5035317;28;20215;-72
2022/02/05 09:08:08;;;;;;;31.83;4.45;;;5.20;99.90;;;;;;5034446;28;20382;-73
2022/02/05 09:11:29;;;;;;;25.08;3.80;;;5.30;99.90;;;;;;5034730;28;20470;-72
2022/02/05 09:15:53;;;;;;;51.67;5.15;;;5.30;99.90;;;;;;5034787;28;20136;-72
2022/02/05 09:18:19;;;;;;;41.67;5.15;;;5.20;99.90;;;;;;5034699;28;20076;-73
2022/02/05 09:20:45;;;;;;;50.42;5.25;;;5.20;99.90;;;;;;5034578;28;20474;-73
2022/02/05 09:23:10;;;;;;;22.00;4.05;;;5.10;99.90;;;;;;5034865;28;20029;-72
2022/02/05 09:25:40;;;;;;;38.72;5.35;;;4.90;99.90;;;;;;5034599;28;20474;-72
2022/02/05 09:28:08;;;;;;;30.98;3.55;;;4.80;99.90;;;;;;5016865;28;20022;-72
2022/02/05 09:30:46;;;;;;;23.27;3.72;;;4.80;99.90;;;;;;5034632;28;20381;-73
2022/02/05 09:33:11;;;;;;;40.38;4.78;;;4.90;99.90;;;;;;5034711;28;20022;-72
2022/02/05 09:35:37;;;;;;;35.50;5.30;;;5.00;99.90;;;;;;5034333;28;20017;-73
2022/02/05 09:38:02;;;;;;;42.42;4.45;;;5.00;99.90;;;;;;5034849;28;20026;-72
2022/02/05 09:40:28;;;;;;;33.85;5.30;;;5.00;99.90;;;;;;5034211;28;20021;-73
2022/02/05 09:42:53;;;;;;;45.92;5.28;;;5.00;99.90;;;;;;5034517;28;20030;-72
2022/02/05 09:45:20;;;;;;;32.63;6.47;;;5.10;99.90;;;;;;5034446;28;20022;-73
2022/02/05 09:47:46;;;;;;;30.50;4.93;;;5.20;99.90;;;;;;5034161;28;20018;-72
2022/02/05 09:50:11;;;;;;;51.83;6.65;;;5.30;99.90;;;;;;5033913;28;20033;-73
2022/02/05 09:52:37;;;;;;;50.50;6.97;;;5.30;99.90;;;;;;5033992;28;20037;-72
2022/02/05 09:55:03;;;;;;;47.35;5.97;;;5.40;99.90;;;;;;5015415;28;20018;-72
2022/02/05 09:57:29;;;;;;;47.05;6.57;;;5.50;99.90;;;;;;5033915;28;20022;-72
2022/02/05 10:00:00;;;;;;;46.42;5.25;;;5.50;99.90;;;;;;5034077;28;20447;-73
2022/02/05 10:02:31;;;;;;;17.40;3.28;;;5.20;99.90;;;;;;5034001;28;20100;-72
2022/02/05 10:05:04;;;;;;;30.88;3.22;;;4.70;99.90;;;;;;5033888;28;20084;-72
2022/02/05 10:07:30;;;;;;;26.70;3.67;;;4.40;99.90;;;;;;5034142;28;20032;-72
2022/02/05 10:10:00;;;;;;;32.03;4.88;;;4.20;99.90;;;;;;5033691;28;20029;-73
2022/02/05 10:12:26;;;;;;;36.10;5.82;;;4.10;99.90;;;;;;5033995;28;20493;-72
2022/02/05 10:14:55;;;;;;;24.58;3.25;;;4.10;99.90;;;;;;5034012;28;20037;-72
2022/02/05 10:17:40;;;;;;;20.50;3.50;;;4.10;99.90;;;;;;5033929;28;20028;-72
2022/02/05 10:20:07;;;;;;;38.25;4.90;;;4.20;99.90;;;;;;5033684;28;20022;-72
2022/02/05 10:22:38;;;;;;;29.42;3.75;;;4.40;99.90;;;;;;5015941;28;20096;-72
2022/02/05 10:25:15;;;;;;;27.80;4.47;;;4.60;99.90;;;;;;5033878;28;20410;-72
2022/02/05 10:27:42;;;;;;;45.20;5.00;;;4.80;99.90;;;;;;5033747;28;20555;-72
2022/02/05 10:30:09;;;;;;;27.02;3.78;;;4.90;99.90;;;;;;5033826;28;20029;-72
2022/02/05 10:32:41;;;;;;;24.05;4.25;;;5.00;99.90;;;;;;5033430;28;20359;-72
2022/02/05 10:35:25;;;;;;;28.17;5.63;;;4.80;99.90;;;;;;5034035;28;20108;-72
2022/02/05 10:43:35;;;;;;;34.40;3.92;;;4.60;99.90;;;;;;5017625;28;20120;-72
2022/02/05 10:46:05;;;;;;;36.50;4.63;;;4.70;99.90;;;;;;5033265;28;20021;-72
2022/02/05 10:48:31;;;;;;;31.75;4.32;;;4.70;99.90;;;;;;5033577;28;20018;-72
2022/02/05 10:51:00;;;;;;;32.05;4.22;;;4.70;99.90;;;;;;5033132;28;20094;-72
2022/02/05 10:53:31;;;;;;;31.40;4.88;;;4.70;99.90;;;;;;5033258;28;20014;-72
2022/02/05 10:59:15;;;;;;;47.25;6.82;;;4.90;99.90;;;;;;5033862;28;20029;-72
2022/02/05 11:07:13;;;;;;;44.72;5.00;;;5.50;99.90;;;;;;5036951;28;19912;-73
2022/02/05 11:09:44;;;;;;;43.78;6.95;;;5.70;99.90;;;;;;5037358;28;20025;-73
2022/02/05 11:20:22;;;;;;;38.85;5.13;;;5.60;99.90;;;;;;5037194;28;20032;-73
2022/02/05 11:22:51;;;;;;;37.60;4.60;;;5.60;99.90;;;;;;5036883;28;20036;-73
2022/02/05 11:25:19;;;;;;;28.30;4.53;;;5.60;99.90;;;;;;5037132;28;20429;-72
2022/02/05 11:27:47;;;;;;;39.60;3.95;;;5.70;99.90;;;;;;5037312;28;20416;-72
2022/02/05 11:30:25;;;;;;;27.83;3.58;;;5.90;99.90;;;;;;5036647;28;20079;-73
2022/02/05 11:32:51;;;;;;;31.05;3.65;;;6.10;99.90;;;;;;5018828;28;20087;-72
2022/02/05 11:35:29;;;;;;;32.50;5.00;;;6.20;99.90;;;;;;5037212;28;20017;-72
2022/02/05 11:37:59;;;;;;;32.30;5.13;;;6.20;99.90;;;;;;5036788;28;20028;-72
2022/02/05 11:40:43;;;;;;;37.53;5.10;;;6.30;99.90;;;;;;5036497;28;20096;-72
2022/02/05 11:43:27;;;;;;;44.03;4.53;;;6.20;99.90;;;;;;5036523;28;20441;-72
2022/02/05 11:46:04;;;;;;;;;;;6.20;99.90;;;;;;5036869;28;20105;-72
2022/02/05 11:48:52;;;;;;;52.65;7.05;;;6.20;99.90;;;;;;5036419;28;19996;-72
2022/02/05 11:51:20;;;;;;;44.67;6.07;;;6.20;99.90;;;;;;5036133;28;20433;-72
2022/02/05 11:54:04;;;;;;;50.10;6.55;;;6.10;99.90;;;;;;5036299;28;20033;-72
2022/02/05 11:57:06;;;;;;;49.17;5.85;;;6.10;99.90;;;;;;5036359;28;20025;-72
2022/02/05 12:00:00;;;;;;;39.85;5.25;;;6.00;99.90;;;;;;5036468;28;20021;-73
2022/02/05 12:02:38;;;;;;;34.85;5.15;;;6.00;99.90;;;;;;5036008;28;20017;-72
2022/02/05 12:05:20;;;;;;;38.05;5.85;;;5.90;99.90;;;;;;5036088;28;20033;-72
2022/02/05 12:08:00;;;;;;;42.22;5.75;;;5.80;99.90;;;;;;5036369;28;20389;-72
2022/02/05 12:10:41;;;;;;;37.42;5.30;;;5.60;99.90;;;;;;5036071;28;20389;-72
2022/02/05 12:13:16;;;;;;;52.35;5.85;;;5.60;99.90;;;;;;5036106;28;20024;-72
2022/02/05 12:16:10;;;;;;;43.40;5.45;;;5.50;99.90;;;;;;5035886;28;20022;-72
2022/02/05 12:18:54;;;;;;;;;;;5.50;99.90;;;;;;5025698;28;20481;-72
2022/02/05 12:21:27;;;;;;;38.92;5.00;;;5.60;99.90;;;;;;5036301;28;20341;-72
2022/02/05 12:24:21;;;;;;;44.90;5.93;;;5.60;99.90;;;;;;5036092;28;20084;-72
2022/02/05 12:26:45;;;;;;;52.90;6.10;;;5.70;99.90;;;;;;5035608;28;20148;-72
2022/02/05 12:29:25;;;;;;;45.25;7.78;;;5.70;99.90;;;;;;5036004;28;20109;-72
2022/02/05 12:31:52;;;;;;;31.52;4.68;;;5.80;99.90;;;;;;5035611;28;20021;-72
2022/02/05 12:34:17;;;;;;;35.92;4.25;;;5.70;99.90;;;;;;5035593;28;20028;-72
2022/02/05 12:36:49;;;;;;;33.65;4.95;;;5.60;99.90;;;;;;5035521;28;20029;-72
2022/02/05 12:39:27;;;;;;;27.30;5.30;;;5.70;99.90;;;;;;5017744;28;20091;-72
2022/02/05 12:41:59;;;;;;;41.95;5.13;;;5.70;99.90;;;;;;5017691;28;20021;-72
2022/02/05 12:44:29;;;;;;;46.17;4.70;;;5.80;99.90;;;;;;5035710;28;20028;-72
2022/02/05 12:47:06;;;;;;;33.40;4.45;;;5.80;99.90;;;;;;5035358;28;20481;-72
2022/02/05 12:52:22;;;;;;;30.35;5.07;;;5.80;99.90;;;;;;5035527;28;20064;-72
2022/02/05 12:54:52;;;;;;;33.90;4.55;;;5.70;99.90;;;;;;5035777;28;20017;-72
2022/02/05 12:57:19;;;;;;;42.60;5.85;;;5.70;99.90;;;;;;5035140;28;20022;-72
2022/02/05 12:59:45;;;;;;;38.08;5.97;;;5.60;99.90;;;;;;5035034;28;20104;-72
2022/02/05 13:02:13;;;;;;;42.33;6.20;;;5.70;99.90;;;;;;5035080;28;20108;-72
2022/02/05 13:04:41;;;;;;;49.88;6.25;;;5.60;99.90;;;;;;5035026;28;20100;-72
2022/02/05 13:07:21;;;;;;;49.42;6.72;;;5.70;99.90;;;;;;5034995;28;20082;-72
2022/02/05 13:10:05;;;;;;;53.47;7.03;;;5.70;99.90;;;;;;5035417;28;20017;-72
2022/02/05 13:12:39;;;;;;;;;;;5.70;99.90;;;;;;5035779;28;20036;-72
2022/02/05 13:15:26;;;;;;;53.92;6.90;;;5.70;99.90;;;;;;5035018;28;19905;-72
2022/02/05 13:18:14;;;;;;;49.58;6.18;;;5.70;99.90;;;;;;5034798;28;20017;-72
2022/02/05 13:34:28;;;;;;;53.65;6.18;;;5.70;99.90;;;;;;5034984;28;20036;-72
2022/02/05 13:37:02;;;;;;;60.03;7.65;;;5.70;99.90;;;;;;5034678;28;20017;-72
2022/02/05 13:42:09;;;;;;;52.47;7.15;;;5.70;99.90;;;;;;5034925;28;20030;-72
2022/02/05 13:45:11;;;;;;;44.88;6.45;;;5.70;99.90;;;;;;5034578;28;20445;-72
2022/02/05 13:47:49;;;;;;;65.35;6.35;;;5.80;99.90;;;;;;5034519;28;20120;-72
2022/02/05 13:50:23;;;;;;;50.30;5.95;;;5.70;99.90;;;;;;5016346;28;20064;-72
2022/02/05 13:52:53;;;;;;;59.30;7.30;;;5.70;99.90;;;;;;5034033;28;20030;-72
2022/02/05 13:55:29;;;;;;;43.88;6.28;;;5.70;99.90;;;;;;5034091;28;20033;-72
2022/02/05 13:57:56;;;;;;;55.65;8.75;;;5.70;99.90;;;;;;5016564;28;20413;-72
2022/02/05 14:00:23;;;;;;;51.22;6.80;;;5.70;99.90;;;;;;5033918;28;20036;-72
2022/02/05 14:02:59;;;;;;;42.47;7.68;;;5.70;99.90;;;;;;5033895;28;20040;-72
2022/02/05 14:05:25;;;;;;;55.47;6.55;;;5.70;99.90;;;;;;5034018;28;20527;-72
2022/02/05 14:07:51;;;;;;;42.28;7.10;;;5.70;99.90;;;;;;5016075;28;20029;-72
2022/02/05 14:10:19;;;;;;;54.38;6.22;;;5.70;99.90;;;;;;5034312;28;20033;-72
2022/02/05 14:12:49;;;;;;;59.65;7.70;;;5.80;99.90;;;;;;5033665;28;20040;-72
2022/02/05 14:15:15;;;;;;;46.30;7.28;;;5.70;99.90;;;;;;5033987;28;20021;-72
2022/02/05 14:17:40;;;;;;;49.55;6.65;;;5.70;99.90;;;;;;5034221;28;20022;-72
2022/02/05 14:20:12;;;;;;;62.45;8.32;;;5.70;99.90;;;;;;5033619;28;20025;-72
2022/02/05 14:22:40;;;;;;;44.10;7.25;;;5.70;99.90;;;;;;5033821;28;20049;-72
2022/02/05 14:25:29;;;;;;;48.03;6.55;;;5.70;99.90;;;;;;5033591;28;20025;-72
2022/02/05 14:28:15;;;;;;;56.20;7.30;;;5.70;99.90;;;;;;5033886;28;20025;-72
2022/02/05 14:30:44;;;;;;;62.72;8.13;;;5.70;99.90;;;;;;5033480;28;20470;-72
2022/02/05 14:33:12;;;;;;;69.45;8.95;;;5.70;99.90;;;;;;5033778;28;20386;-72
2022/02/05 14:40:48;;;;;;;55.92;7.97;;;5.70;99.90;;;;;;5033158;28;20079;-72
2022/02/05 14:43:16;;;;;;;62.15;7.22;;;5.80;99.90;;;;;;5033353;28;20029;-72
2022/02/05 14:45:43;;;;;;;63.50;7.63;;;5.80;99.90;;;;;;5033301;28;20491;-72
2022/02/05 14:48:09;;;;;;;74.72;9.23;;;5.80;99.90;;;;;;5015600;28;20025;-72
2022/02/05 14:50:35;;;;;;;59.72;9.25;;;5.70;99.90;;;;;;5033721;28;20387;-74
2022/02/05 14:53:01;;;;;;;58.88;7.75;;;5.80;99.90;;;;;;5033441;28;20037;-74
2022/02/05 14:55:27;;;;;;;57.80;7.88;;;5.70;99.90;;;;;;5033247;28;20026;-74
2022/02/05 14:57:52;;;;;;;70.72;9.63;;;5.70;99.90;;;;;;5033196;28;20018;-74
2022/02/05 15:00:18;;;;;;;75.70;8.05;;;5.60;99.90;;;;;;5033118;28;20591;-74
2022/02/05 15:02:44;;;;;;;68.68;10.65;;;5.60;99.90;;;;;;5033482;28;20510;-74
2022/02/05 15:05:11;;;;;;;84.95;9.80;;;5.60;99.90;;;;;;5033421;28;20026;-74
2022/02/05 15:07:40;;;;;;;69.03;9.25;;;5.50;99.90;;;;;;5033317;28;20045;-74
2022/02/05 15:10:07;;;;;;;63.97;10.38;;;5.60;99.90;;;;;;5033046;28;20026;-74
2022/02/05 15:12:33;;;;;;;75.88;8.63;;;5.50;99.90;;;;;;5033600;28;20036;-74
2022/02/05 15:14:59;;;;;;;61.13;8.75;;;5.50;99.90;;;;;;5033080;28;20134;-74
2022/02/05 15:17:24;;;;;;;52.75;7.65;;;5.50;99.90;;;;;;5033057;28;20021;-74
2022/02/05 15:19:50;;;;;;;71.97;9.63;;;5.50;99.90;;;;;;5032925;28;20506;-74
2022/02/05 15:22:16;;;;;;;57.22;7.50;;;5.40;99.90;;;;;;5015539;28;20113;-74
2022/02/05 15:24:41;;;;;;;56.67;8.60;;;5.40;99.90;;;;;;5033006;28;20029;-74
2022/02/05 15:27:07;;;;;;;58.15;8.90;;;5.40;99.90;;;;;;5032974;28;20033;-74
2022/02/05 15:29:33;;;;;;;60.25;7.82;;;5.50;99.90;;;;;;5032850;28;20026;-74
2022/02/05 15:31:59;;;;;;;61.78;8.40;;;5.40;99.90;;;;;;5032791;28;20032;-74
2022/02/05 15:34:25;;;;;;;82.47;9.70;;;5.40;99.90;;;;;;5032846;28;20022;-74
2022/02/05 15:36:55;;;;;;;74.43;8.55;;;5.40;99.90;;;;;;5015111;28;20033;-74
2022/02/05 15:44:34;;;;;;;81.38;10.57;;;5.40;99.90;;;;;;5033382;28;20584;-74
2022/02/05 15:47:00;;;;;;;60.88;8.32;;;5.40;99.90;;;;;;5032731;28;20021;-74
2022/02/05 15:49:27;;;;;;;98.38;12.77;;;5.40;99.90;;;;;;5032505;28;20367;-74
2022/02/05 15:51:53;;;;;;;62.08;9.88;;;5.40;99.90;;;;;;5033855;28;20036;-74